sensor_id;sensor_type;location;lat;lon;timestamp;pressure;altitude;pressure_sealevel;temperature;humidity
46392;BME280;32098;49.448;7.904;2023-04-30T00:01:17;98548.75;;;9.19;75.58
46392;BME280;32098;49.448;7.904;2023-04-30T00:03:44;98560.59;;;9.30;75.48
46392;BME280;32098;49.448;7.904;2023-04-30T00:06:31;98578.56;;;9.41;74.89
46392;BME280;32098;49.448;7.904;2023-04-30T00:09:02;98556.75;;;9.19;74.95
46392;BME280;32098;49.448;7.904;2023-04-30T00:11:28;98578.19;;;9.37;74.99
46392;BME280;32098;49.448;7.904;2023-04-30T00:13:55;98581.66;;;9.38;74.90
46392;BME280;32098;49.448;7.904;2023-04-30T00:16:24;98572.69;;;9.32;74.39
46392;BME280;32098;49.448;7.904;2023-04-30T00:18:51;98518.91;;;9.04;74.47
46392;BME280;32098;49.448;7.904;2023-04-30T00:21:18;98551.56;;;9.31;74.27
46392;BME280;32098;49.448;7.904;2023-04-30T00:23:52;98549.03;;;9.04;75.25
46392;BME280;32098;49.448;7.904;2023-04-30T00:26:19;98560.28;;;9.06;74.98
46392;BME280;32098;49.448;7.904;2023-04-30T00:28:47;98522.31;;;8.67;76.27
46392;BME280;32098;49.448;7.904;2023-04-30T00:31:14;98568.31;;;9.00;76.11
46392;BME280;32098;49.448;7.904;2023-04-30T00:33:41;98547.91;;;8.74;76.76
46392;BME280;32098;49.448;7.904;2023-04-30T00:36:08;98479.00;;;8.20;76.59
46392;BME280;32098;49.448;7.904;2023-04-30T00:38:54;98569.81;;;8.76;77.07
46392;BME280;32098;49.448;7.904;2023-04-30T00:41:22;98481.50;;;8.22;77.95
46392;BME280;32098;49.448;7.904;2023-04-30T00:43:49;98550.59;;;8.48;78.21
46392;BME280;32098;49.448;7.904;2023-04-30T00:46:15;98571.91;;;8.54;78.46
46392;BME280;32098;49.448;7.904;2023-04-30T00:48:42;98574.34;;;8.56;79.28
46392;BME280;32098;49.448;7.904;2023-04-30T00:51:09;98522.00;;;8.11;79.86
46392;BME280;32098;49.448;7.904;2023-04-30T00:53:38;98527.34;;;8.04;80.38
46392;BME280;32098;49.448;7.904;2023-04-30T00:56:07;98515.66;;;8.05;80.22
46392;BME280;32098;49.448;7.904;2023-04-30T00:58:35;98576.03;;;8.31;79.89
46392;BME280;32098;49.448;7.904;2023-04-30T01:01:03;98526.53;;;7.97;80.31
46392;BME280;32098;49.448;7.904;2023-04-30T01:03:31;98487.47;;;7.58;80.39
46392;BME280;32098;49.448;7.904;2023-04-30T01:05:58;98555.53;;;8.25;80.16
46392;BME280;32098;49.448;7.904;2023-04-30T01:08:24;98555.34;;;8.20;80.34
46392;BME280;32098;49.448;7.904;2023-04-30T01:11:06;98565.38;;;8.31;80.30
46392;BME280;32098;49.448;7.904;2023-04-30T01:13:54;98531.00;;;8.16;79.94
46392;BME280;32098;49.448;7.904;2023-04-30T01:16:26;98555.75;;;8.36;80.18
46392;BME280;32098;49.448;7.904;2023-04-30T01:19:01;98558.41;;;8.43;79.65
46392;BME280;32098;49.448;7.904;2023-04-30T01:21:29;98535.50;;;8.29;80.58
46392;BME280;32098;49.448;7.904;2023-04-30T01:30:13;98537.34;;;8.22;79.82
46392;BME280;32098;49.448;7.904;2023-04-30T01:32:44;98559.63;;;8.47;79.48
46392;BME280;32098;49.448;7.904;2023-04-30T01:35:10;98544.09;;;8.31;79.63
46392;BME280;32098;49.448;7.904;2023-04-30T01:37:51;98557.81;;;8.34;79.70
46392;BME280;32098;49.448;7.904;2023-04-30T01:40:41;98552.88;;;8.25;79.57
46392;BME280;32098;49.448;7.904;2023-04-30T01:43:22;98544.91;;;8.18;80.45
46392;BME280;32098;49.448;7.904;2023-04-30T01:46:17;98556.19;;;8.14;80.28
46392;BME280;32098;49.448;7.904;2023-04-30T01:51:32;98540.84;;;7.96;81.11
46392;BME280;32098;49.448;7.904;2023-04-30T01:54:16;98564.97;;;8.01;81.10
46392;BME280;32098;49.448;7.904;2023-04-30T01:57:06;98573.16;;;8.13;80.46
46392;BME280;32098;49.448;7.904;2023-04-30T01:59:38;98570.28;;;8.08;80.63
46392;BME280;32098;49.448;7.904;2023-04-30T02:02:06;98577.25;;;8.15;81.00
46392;BME280;32098;49.448;7.904;2023-04-30T02:04:33;98512.63;;;7.88;80.45
46392;BME280;32098;49.448;7.904;2023-04-30T02:07:02;98565.97;;;8.33;79.30
46392;BME280;32098;49.448;7.904;2023-04-30T02:09:29;98537.16;;;8.04;80.11
46392;BME280;32098;49.448;7.904;2023-04-30T02:11:56;98466.41;;;7.63;80.56
46392;BME280;32098;49.448;7.904;2023-04-30T02:14:24;98528.97;;;7.99;80.78
46392;BME280;32098;49.448;7.904;2023-04-30T02:16:51;98535.53;;;7.89;81.30
46392;BME280;32098;49.448;7.904;2023-04-30T02:19:18;98526.50;;;7.77;81.83
46392;BME280;32098;49.448;7.904;2023-04-30T02:22:10;98556.38;;;7.92;81.88
46392;BME280;32098;49.448;7.904;2023-04-30T02:24:37;98528.16;;;7.78;81.60
46392;BME280;32098;49.448;7.904;2023-04-30T02:27:05;98549.84;;;7.95;81.45
46392;BME280;32098;49.448;7.904;2023-04-30T02:29:32;98532.69;;;7.84;81.34
46392;BME280;32098;49.448;7.904;2023-04-30T02:31:59;98448.19;;;7.27;81.47
46392;BME280;32098;49.448;7.904;2023-04-30T02:34:26;98530.22;;;7.76;81.98
46392;BME280;32098;49.448;7.904;2023-04-30T02:36:56;98513.44;;;7.56;82.05
46392;BME280;32098;49.448;7.904;2023-04-30T02:39:23;98513.44;;;7.56;81.88
46392;BME280;32098;49.448;7.904;2023-04-30T02:41:50;98454.50;;;7.13;82.36
46392;BME280;32098;49.448;7.904;2023-04-30T02:44:19;98534.69;;;7.56;82.39
46392;BME280;32098;49.448;7.904;2023-04-30T02:46:46;98526.91;;;7.55;82.15
46392;BME280;32098;49.448;7.904;2023-04-30T02:49:15;98564.16;;;7.74;83.05
46392;BME280;32098;49.448;7.904;2023-04-30T02:51:42;98563.53;;;7.72;82.81
46392;BME280;32098;49.448;7.904;2023-04-30T02:54:09;98543.28;;;7.58;83.13
46392;BME280;32098;49.448;7.904;2023-04-30T02:56:36;98509.72;;;7.31;83.35
46392;BME280;32098;49.448;7.904;2023-04-30T02:59:04;98570.06;;;7.63;83.57
46392;BME280;32098;49.448;7.904;2023-04-30T03:01:31;98509.31;;;7.34;83.35
46392;BME280;32098;49.448;7.904;2023-04-30T03:03:59;98574.59;;;7.69;83.47
46392;BME280;32098;49.448;7.904;2023-04-30T03:06:26;98549.59;;;7.57;83.02
46392;BME280;32098;49.448;7.904;2023-04-30T03:08:53;98534.22;;;7.33;83.32
46392;BME280;32098;49.448;7.904;2023-04-30T03:11:20;98562.69;;;7.59;83.29
46392;BME280;32098;49.448;7.904;2023-04-30T03:13:55;98561.66;;;7.53;83.85
46392;BME280;32098;49.448;7.904;2023-04-30T03:16:31;98551.03;;;7.53;83.58
46392;BME280;32098;49.448;7.904;2023-04-30T03:18:58;98503.97;;;7.27;82.61
46392;BME280;32098;49.448;7.904;2023-04-30T03:21:24;98464.25;;;7.00;82.90
46392;BME280;32098;49.448;7.904;2023-04-30T03:23:51;98558.78;;;7.55;82.93
46392;BME280;32098;49.448;7.904;2023-04-30T03:26:19;98557.78;;;7.62;83.11
46392;BME280;32098;49.448;7.904;2023-04-30T03:28:46;98545.50;;;7.55;83.03
46392;BME280;32098;49.448;7.904;2023-04-30T03:31:25;98514.63;;;7.34;82.68
46392;BME280;32098;49.448;7.904;2023-04-30T03:33:51;98537.53;;;7.55;83.21
46392;BME280;32098;49.448;7.904;2023-04-30T03:36:18;98536.72;;;7.41;83.63
46392;BME280;32098;49.448;7.904;2023-04-30T03:38:45;98529.56;;;7.42;83.61
46392;BME280;32098;49.448;7.904;2023-04-30T03:41:12;98453.81;;;6.92;83.25
46392;BME280;32098;49.448;7.904;2023-04-30T03:43:39;98464.06;;;7.01;83.26
46392;BME280;32098;49.448;7.904;2023-04-30T03:46:22;98556.53;;;7.45;83.60
46392;BME280;32098;49.448;7.904;2023-04-30T03:48:49;98553.22;;;7.30;83.42
46392;BME280;32098;49.448;7.904;2023-04-30T03:51:18;98498.66;;;7.14;83.71
46392;BME280;32098;49.448;7.904;2023-04-30T03:53:47;98564.09;;;7.48;83.75
46392;BME280;32098;49.448;7.904;2023-04-30T03:56:14;98539.53;;;7.40;83.51
46392;BME280;32098;49.448;7.904;2023-04-30T03:58:41;98547.75;;;7.51;83.10
46392;BME280;32098;49.448;7.904;2023-04-30T04:01:08;98517.69;;;7.31;83.91
46392;BME280;32098;49.448;7.904;2023-04-30T04:03:35;98494.38;;;7.26;83.13
46392;BME280;32098;49.448;7.904;2023-04-30T04:06:02;98520.97;;;7.46;82.79
46392;BME280;32098;49.448;7.904;2023-04-30T04:08:29;98556.13;;;7.48;83.81
46392;BME280;32098;49.448;7.904;2023-04-30T04:10:56;98450.69;;;6.68;83.72
46392;BME280;32098;49.448;7.904;2023-04-30T04:13:46;98552.63;;;7.35;83.50
46392;BME280;32098;49.448;7.904;2023-04-30T04:16:13;98549.34;;;7.26;84.41
46392;BME280;32098;49.448;7.904;2023-04-30T04:18:40;98543.59;;;7.22;84.20
46392;BME280;32098;49.448;7.904;2023-04-30T04:21:18;98560.81;;;7.33;83.93
46392;BME280;32098;49.448;7.904;2023-04-30T04:23:45;98548.91;;;7.22;84.12
46392;BME280;32098;49.448;7.904;2023-04-30T04:26:12;98480.78;;;6.89;84.53
46392;BME280;32098;49.448;7.904;2023-04-30T04:28:58;98553.44;;;7.28;84.68
46392;BME280;32098;49.448;7.904;2023-04-30T04:31:25;98572.03;;;7.35;84.09
46392;BME280;32098;49.448;7.904;2023-04-30T04:33:52;98565.50;;;7.31;83.93
46392;BME280;32098;49.448;7.904;2023-04-30T04:36:24;98457.63;;;6.69;83.81
46392;BME280;32098;49.448;7.904;2023-04-30T04:39:06;98535.84;;;7.14;83.63
46392;BME280;32098;49.448;7.904;2023-04-30T04:41:34;98522.72;;;7.13;84.04
46392;BME280;32098;49.448;7.904;2023-04-30T04:44:05;98538.09;;;7.24;84.13
46392;BME280;32098;49.448;7.904;2023-04-30T04:46:33;98562.03;;;7.37;83.88
46392;BME280;32098;49.448;7.904;2023-04-30T04:49:00;98465.63;;;6.83;83.72
46392;BME280;32098;49.448;7.904;2023-04-30T04:51:27;98462.56;;;6.79;83.89
46392;BME280;32098;49.448;7.904;2023-04-30T04:54:04;98567.59;;;7.55;83.58
46392;BME280;32098;49.448;7.904;2023-04-30T04:56:31;98508.66;;;7.25;83.35
46392;BME280;32098;49.448;7.904;2023-04-30T04:59:00;98545.69;;;7.40;83.22
46392;BME280;32098;49.448;7.904;2023-04-30T05:01:27;98553.69;;;7.53;83.07
46392;BME280;32098;49.448;7.904;2023-04-30T05:03:55;98567.63;;;7.62;82.83
46392;BME280;32098;49.448;7.904;2023-04-30T05:06:22;98540.41;;;7.53;82.12
46392;BME280;32098;49.448;7.904;2023-04-30T05:09:05;98546.50;;;7.47;81.89
46392;BME280;32098;49.448;7.904;2023-04-30T05:11:35;98561.69;;;7.73;81.89
46392;BME280;32098;49.448;7.904;2023-04-30T05:14:01;98574.59;;;7.69;82.09
46392;BME280;32098;49.448;7.904;2023-04-30T05:16:32;98527.31;;;7.39;81.80
46392;BME280;32098;49.448;7.904;2023-04-30T05:18:59;98575.56;;;7.49;83.19
46392;BME280;32098;49.448;7.904;2023-04-30T05:24:28;98577.22;;;7.56;83.27
46392;BME280;32098;49.448;7.904;2023-04-30T05:26:55;98562.06;;;7.50;83.46
46392;BME280;32098;49.448;7.904;2023-04-30T05:29:22;98559.59;;;7.42;83.26
46392;BME280;32098;49.448;7.904;2023-04-30T05:32:00;98573.94;;;7.54;83.60
46392;BME280;32098;49.448;7.904;2023-04-30T05:34:27;98553.91;;;7.58;82.98
46392;BME280;32098;49.448;7.904;2023-04-30T05:36:54;98580.47;;;7.58;82.89
46392;BME280;32098;49.448;7.904;2023-04-30T05:39:22;98565.16;;;7.54;83.36
46392;BME280;32098;49.448;7.904;2023-04-30T05:41:48;98542.19;;;7.40;83.36
46392;BME280;32098;49.448;7.904;2023-04-30T05:44:18;98556.34;;;7.60;82.77
46392;BME280;32098;49.448;7.904;2023-04-30T05:46:45;98564.09;;;7.48;82.34
46392;BME280;32098;49.448;7.904;2023-04-30T05:49:12;98589.50;;;7.70;83.17
46392;BME280;32098;49.448;7.904;2023-04-30T05:51:39;98561.66;;;7.60;82.67
46392;BME280;32098;49.448;7.904;2023-04-30T05:54:05;98494.09;;;7.08;83.25
46392;BME280;32098;49.448;7.904;2023-04-30T05:56:32;98483.94;;;7.18;82.25
46392;BME280;32098;49.448;7.904;2023-04-30T05:58:59;98559.06;;;7.79;82.51
46392;BME280;32098;49.448;7.904;2023-04-30T06:01:26;98564.38;;;7.79;82.03
46392;BME280;32098;49.448;7.904;2023-04-30T06:03:54;98527.69;;;7.42;82.60
46392;BME280;32098;49.448;7.904;2023-04-30T06:06:21;98533.03;;;7.55;82.39
46392;BME280;32098;49.448;7.904;2023-04-30T06:08:48;98436.84;;;6.86;81.99
46392;BME280;32098;49.448;7.904;2023-04-30T06:11:15;98478.63;;;7.25;81.54
46392;BME280;32098;49.448;7.904;2023-04-30T06:13:57;98556.41;;;7.79;82.15
46392;BME280;32098;49.448;7.904;2023-04-30T06:16:24;98568.25;;;7.97;80.02
46392;BME280;32098;49.448;7.904;2023-04-30T06:18:51;98554.94;;;7.70;80.66
46392;BME280;32098;49.448;7.904;2023-04-30T06:21:21;98569.69;;;8.06;80.96
46392;BME280;32098;49.448;7.904;2023-04-30T06:23:51;98555.78;;;8.17;80.03
46392;BME280;32098;49.448;7.904;2023-04-30T06:26:18;98544.72;;;8.07;80.45
46392;BME280;32098;49.448;7.904;2023-04-30T06:28:45;98546.97;;;8.03;78.77
46392;BME280;32098;49.448;7.904;2023-04-30T06:31:12;98556.97;;;8.27;78.73
46392;BME280;32098;49.448;7.904;2023-04-30T06:33:39;98545.31;;;8.15;78.48
46392;BME280;32098;49.448;7.904;2023-04-30T06:36:06;98549.22;;;8.13;77.93
46392;BME280;32098;49.448;7.904;2023-04-30T06:38:33;98545.50;;;8.33;78.36
46392;BME280;32098;49.448;7.904;2023-04-30T06:41:00;98526.47;;;8.43;77.96
46392;BME280;32098;49.448;7.904;2023-04-30T06:43:26;98548.97;;;8.47;76.61
46392;BME280;32098;49.448;7.904;2023-04-30T06:45:53;98518.72;;;8.22;77.14
46392;BME280;32098;49.448;7.904;2023-04-30T06:48:23;98545.09;;;8.36;77.76
46392;BME280;32098;49.448;7.904;2023-04-30T06:50:50;98582.16;;;8.38;78.14
46392;BME280;32098;49.448;7.904;2023-04-30T06:53:31;98587.09;;;8.21;77.15
46392;BME280;32098;49.448;7.904;2023-04-30T06:55:58;98542.69;;;8.22;78.13
46392;BME280;32098;49.448;7.904;2023-04-30T06:58:31;98547.72;;;8.56;76.40
46392;BME280;32098;49.448;7.904;2023-04-30T07:00:58;98531.81;;;8.23;76.25
46392;BME280;32098;49.448;7.904;2023-04-30T07:03:25;98527.25;;;8.50;76.35
46392;BME280;32098;49.448;7.904;2023-04-30T07:05:53;98494.97;;;8.27;76.30
46392;BME280;32098;49.448;7.904;2023-04-30T07:08:20;98480.16;;;8.50;76.16
46392;BME280;32098;49.448;7.904;2023-04-30T07:10:47;98533.16;;;8.65;73.52
46392;BME280;32098;49.448;7.904;2023-04-30T07:13:14;98522.69;;;8.83;74.38
46392;BME280;32098;49.448;7.904;2023-04-30T07:15:42;98551.75;;;8.91;73.86
46392;BME280;32098;49.448;7.904;2023-04-30T07:18:45;98580.44;;;8.89;75.33
46392;BME280;32098;49.448;7.904;2023-04-30T07:21:14;98572.28;;;8.71;74.98
46392;BME280;32098;49.448;7.904;2023-04-30T07:23:41;98557.06;;;8.91;75.39
46392;BME280;32098;49.448;7.904;2023-04-30T07:26:09;98484.25;;;8.59;74.23
46392;BME280;32098;49.448;7.904;2023-04-30T07:28:36;98480.75;;;8.72;74.33
46392;BME280;32098;49.448;7.904;2023-04-30T07:31:03;98530.84;;;8.88;73.65
46392;BME280;32098;49.448;7.904;2023-04-30T07:33:30;98559.50;;;9.44;73.07
46392;BME280;32098;49.448;7.904;2023-04-30T07:35:57;98557.47;;;9.33;72.44
46392;BME280;32098;49.448;7.904;2023-04-30T07:38:24;98548.31;;;9.60;72.00
46392;BME280;32098;49.448;7.904;2023-04-30T07:40:51;98582.44;;;9.82;73.03
46392;BME280;32098;49.448;7.904;2023-04-30T07:43:18;98550.84;;;9.79;73.09
46392;BME280;32098;49.448;7.904;2023-04-30T07:46:02;98551.09;;;10.27;68.44
46392;BME280;32098;49.448;7.904;2023-04-30T07:48:29;98558.47;;;10.07;70.49
46392;BME280;32098;49.448;7.904;2023-04-30T07:51:02;98554.53;;;10.34;69.32
46392;BME280;32098;49.448;7.904;2023-04-30T07:53:32;98546.03;;;10.62;67.32
46392;BME280;32098;49.448;7.904;2023-04-30T07:56:11;98553.81;;;11.00;66.01
46392;BME280;32098;49.448;7.904;2023-04-30T07:58:38;98543.19;;;11.11;64.78
46392;BME280;32098;49.448;7.904;2023-04-30T08:01:07;98486.69;;;11.08;64.46
46392;BME280;32098;49.448;7.904;2023-04-30T08:03:33;98470.66;;;12.02;61.38
46392;BME280;32098;49.448;7.904;2023-04-30T08:06:01;98481.41;;;11.61;61.42
46392;BME280;32098;49.448;7.904;2023-04-30T08:08:27;98557.13;;;11.61;62.49
46392;BME280;32098;49.448;7.904;2023-04-30T08:10:55;98535.03;;;11.54;61.81
46392;BME280;32098;49.448;7.904;2023-04-30T08:13:22;98546.94;;;10.92;65.86
46392;BME280;32098;49.448;7.904;2023-04-30T08:15:49;98566.28;;;10.70;65.40
46392;BME280;32098;49.448;7.904;2023-04-30T08:18:16;98509.19;;;10.28;65.53
46392;BME280;32098;49.448;7.904;2023-04-30T08:20:49;98394.63;;;9.65;65.74
46392;BME280;32098;49.448;7.904;2023-04-30T08:23:16;98453.22;;;10.58;65.74
46392;BME280;32098;49.448;7.904;2023-04-30T08:25:43;98522.16;;;11.33;63.37
46392;BME280;32098;49.448;7.904;2023-04-30T08:28:14;98537.78;;;11.77;62.94
46392;BME280;32098;49.448;7.904;2023-04-30T08:30:41;98504.53;;;11.26;62.40
46392;BME280;32098;49.448;7.904;2023-04-30T08:33:18;98525.66;;;11.75;62.89
46392;BME280;32098;49.448;7.904;2023-04-30T08:35:45;98496.25;;;12.10;60.70
46392;BME280;32098;49.448;7.904;2023-04-30T08:38:12;98457.25;;;12.37;57.18
46392;BME280;32098;49.448;7.904;2023-04-30T08:40:56;98500.31;;;12.59;57.45
46392;BME280;32098;49.448;7.904;2023-04-30T08:43:33;98468.53;;;12.16;54.02
46392;BME280;32098;49.448;7.904;2023-04-30T08:46:03;98522.88;;;12.97;56.36
46392;BME280;32098;49.448;7.904;2023-04-30T08:48:31;98561.84;;;13.28;56.34
46392;BME280;32098;49.448;7.904;2023-04-30T08:51:02;98509.59;;;13.47;53.22
46392;BME280;32098;49.448;7.904;2023-04-30T08:53:33;98565.84;;;13.42;55.17
46392;BME280;32098;49.448;7.904;2023-04-30T08:56:02;98513.81;;;12.75;55.79
46392;BME280;32098;49.448;7.904;2023-04-30T08:58:28;98433.25;;;11.61;58.83
46392;BME280;32098;49.448;7.904;2023-04-30T09:01:00;98530.75;;;11.65;60.01
46392;BME280;32098;49.448;7.904;2023-04-30T09:03:26;98508.19;;;11.31;61.81
46392;BME280;32098;49.448;7.904;2023-04-30T09:05:54;98501.13;;;11.37;61.37
46392;BME280;32098;49.448;7.904;2023-04-30T09:08:41;98562.38;;;11.98;60.92
46392;BME280;32098;49.448;7.904;2023-04-30T09:11:28;98525.50;;;11.58;59.78
46392;BME280;32098;49.448;7.904;2023-04-30T09:14:00;98551.41;;;11.88;57.48
46392;BME280;32098;49.448;7.904;2023-04-30T09:16:48;98558.94;;;11.79;59.12
46392;BME280;32098;49.448;7.904;2023-04-30T09:19:26;98520.63;;;11.55;55.80
46392;BME280;32098;49.448;7.904;2023-04-30T09:21:53;98544.09;;;11.95;55.28
46392;BME280;32098;49.448;7.904;2023-04-30T09:24:20;98532.56;;;12.06;56.76
46392;BME280;32098;49.448;7.904;2023-04-30T09:26:47;98511.78;;;11.66;56.59
46392;BME280;32098;49.448;7.904;2023-04-30T09:29:15;98526.81;;;11.67;58.31
46392;BME280;32098;49.448;7.904;2023-04-30T09:31:44;98549.22;;;11.55;58.69
46392;BME280;32098;49.448;7.904;2023-04-30T09:34:16;98565.13;;;11.91;58.62
46392;BME280;32098;49.448;7.904;2023-04-30T09:36:53;98518.44;;;11.34;59.60
46392;BME280;32098;49.448;7.904;2023-04-30T09:39:21;98553.47;;;11.26;59.90
46392;BME280;32098;49.448;7.904;2023-04-30T09:41:50;98506.75;;;10.81;59.96
46392;BME280;32098;49.448;7.904;2023-04-30T09:44:30;98558.38;;;11.29;58.06
46392;BME280;32098;49.448;7.904;2023-04-30T09:47:28;98557.78;;;11.45;58.16
46392;BME280;32098;49.448;7.904;2023-04-30T09:49:55;98527.84;;;11.07;57.97
46392;BME280;32098;49.448;7.904;2023-04-30T09:52:24;98555.25;;;11.50;57.11
46392;BME280;32098;49.448;7.904;2023-04-30T09:54:52;98551.91;;;11.55;56.54
46392;BME280;32098;49.448;7.904;2023-04-30T09:57:22;98553.66;;;11.31;56.33
46392;BME280;32098;49.448;7.904;2023-04-30T09:59:52;98515.06;;;11.09;56.80
46392;BME280;32098;49.448;7.904;2023-04-30T10:02:21;98453.13;;;10.64;55.68
46392;BME280;32098;49.448;7.904;2023-04-30T10:04:54;98531.81;;;11.34;55.44
46392;BME280;32098;49.448;7.904;2023-04-30T10:07:23;98534.75;;;11.44;54.82
46392;BME280;32098;49.448;7.904;2023-04-30T10:10:09;98554.78;;;11.53;54.07
46392;BME280;32098;49.448;7.904;2023-04-30T10:12:47;98546.06;;;12.11;54.64
46392;BME280;32098;49.448;7.904;2023-04-30T10:15:33;98535.84;;;12.08;55.04
46392;BME280;32098;49.448;7.904;2023-04-30T10:18:05;98531.78;;;12.05;51.65
46392;BME280;32098;49.448;7.904;2023-04-30T10:20:35;98521.28;;;12.04;52.56
46392;BME280;32098;49.448;7.904;2023-04-30T10:23:04;98515.47;;;12.30;51.64
46392;BME280;32098;49.448;7.904;2023-04-30T10:25:34;98541.34;;;12.59;50.04
46392;BME280;32098;49.448;7.904;2023-04-30T10:28:01;98525.38;;;12.18;51.80
46392;BME280;32098;49.448;7.904;2023-04-30T10:30:53;98541.97;;;11.97;52.56
46392;BME280;32098;49.448;7.904;2023-04-30T10:36:47;98524.84;;;11.74;52.36
46392;BME280;32098;49.448;7.904;2023-04-30T10:39:17;98527.56;;;11.98;53.27
46392;BME280;32098;49.448;7.904;2023-04-30T10:41:44;98509.13;;;11.66;52.13
46392;BME280;32098;49.448;7.904;2023-04-30T10:44:20;98470.25;;;11.75;52.13
46392;BME280;32098;49.448;7.904;2023-04-30T10:50:11;98490.06;;;12.21;52.59
46392;BME280;32098;49.448;7.904;2023-04-30T10:52:39;98507.22;;;12.20;51.60
46392;BME280;32098;49.448;7.904;2023-04-30T10:55:21;98481.94;;;11.93;53.69
46392;BME280;32098;49.448;7.904;2023-04-30T10:57:47;98485.16;;;11.71;53.93
46392;BME280;32098;49.448;7.904;2023-04-30T11:00:17;98518.03;;;12.02;54.68
46392;BME280;32098;49.448;7.904;2023-04-30T11:02:46;98517.19;;;12.01;53.15
46392;BME280;32098;49.448;7.904;2023-04-30T11:05:15;98516.00;;;11.86;54.33
46392;BME280;32098;49.448;7.904;2023-04-30T11:07:51;98466.63;;;11.58;54.56
46392;BME280;32098;49.448;7.904;2023-04-30T11:10:23;98512.91;;;12.00;52.13
46392;BME280;32098;49.448;7.904;2023-04-30T11:13:05;98468.31;;;12.06;52.00
46392;BME280;32098;49.448;7.904;2023-04-30T11:15:40;98467.16;;;12.13;50.90
46392;BME280;32098;49.448;7.904;2023-04-30T11:18:07;98493.09;;;12.36;51.34
46392;BME280;32098;49.448;7.904;2023-04-30T11:20:39;98510.91;;;12.77;50.95
46392;BME280;32098;49.448;7.904;2023-04-30T11:23:13;98503.56;;;12.72;49.95
46392;BME280;32098;49.448;7.904;2023-04-30T11:25:53;98473.06;;;12.62;49.75
46392;BME280;32098;49.448;7.904;2023-04-30T11:28:35;98469.03;;;12.87;50.04
46392;BME280;32098;49.448;7.904;2023-04-30T11:31:03;98467.78;;;13.18;48.99
46392;BME280;32098;49.448;7.904;2023-04-30T11:33:31;98480.47;;;13.11;49.26
46392;BME280;32098;49.448;7.904;2023-04-30T11:36:20;98497.31;;;13.35;49.45
46392;BME280;32098;49.448;7.904;2023-04-30T11:38:47;98487.63;;;13.34;47.55
46392;BME280;32098;49.448;7.904;2023-04-30T11:41:14;98451.16;;;13.21;47.29
46392;BME280;32098;49.448;7.904;2023-04-30T11:43:50;98442.53;;;13.02;48.53
46392;BME280;32098;49.448;7.904;2023-04-30T11:46:16;98391.34;;;13.04;48.10
46392;BME280;32098;49.448;7.904;2023-04-30T11:51:59;98470.03;;;13.54;48.12
46392;BME280;32098;49.448;7.904;2023-04-30T11:54:26;98471.84;;;13.37;48.06
46392;BME280;32098;49.448;7.904;2023-04-30T11:56:56;98420.97;;;13.42;48.45
46392;BME280;32098;49.448;7.904;2023-04-30T11:59:48;98473.25;;;13.68;47.73
46392;BME280;32098;49.448;7.904;2023-04-30T12:02:46;98470.59;;;13.56;48.85
46392;BME280;32098;49.448;7.904;2023-04-30T12:05:23;98474.88;;;13.86;47.47
46392;BME280;32098;49.448;7.904;2023-04-30T12:08:02;98462.59;;;13.73;46.88
46392;BME280;32098;49.448;7.904;2023-04-30T12:10:32;98464.00;;;14.14;47.57
46392;BME280;32098;49.448;7.904;2023-04-30T12:12:59;98456.13;;;14.07;46.03
46392;BME280;32098;49.448;7.904;2023-04-30T12:15:27;98456.84;;;14.19;46.57
46392;BME280;32098;49.448;7.904;2023-04-30T12:17:55;98461.75;;;14.44;45.43
46392;BME280;32098;49.448;7.904;2023-04-30T12:20:26;98397.03;;;13.52;46.31
46392;BME280;32098;49.448;7.904;2023-04-30T12:23:00;98431.94;;;13.41;45.83
46392;BME280;32098;49.448;7.904;2023-04-30T12:25:27;98486.88;;;13.66;45.95
46392;BME280;32098;49.448;7.904;2023-04-30T12:27:58;98438.66;;;13.55;46.14
46392;BME280;32098;49.448;7.904;2023-04-30T12:30:25;98436.28;;;13.92;45.76
46392;BME280;32098;49.448;7.904;2023-04-30T12:32:59;98460.84;;;14.17;46.47
46392;BME280;32098;49.448;7.904;2023-04-30T12:35:27;98382.78;;;13.85;46.12
46392;BME280;32098;49.448;7.904;2023-04-30T12:38:06;98419.88;;;14.26;46.34
46392;BME280;32098;49.448;7.904;2023-04-30T12:40:38;98414.81;;;14.52;45.27
46392;BME280;32098;49.448;7.904;2023-04-30T12:43:07;98441.38;;;14.65;43.83
46392;BME280;32098;49.448;7.904;2023-04-30T12:45:48;98444.47;;;14.57;43.62
46392;BME280;32098;49.448;7.904;2023-04-30T12:48:24;98435.56;;;14.35;44.40
46392;BME280;32098;49.448;7.904;2023-04-30T12:51:01;98397.81;;;14.24;44.61
46392;BME280;32098;49.448;7.904;2023-04-30T12:53:57;98430.78;;;14.80;44.99
46392;BME280;32098;49.448;7.904;2023-04-30T12:56:34;98441.16;;;14.71;44.14
46392;BME280;32098;49.448;7.904;2023-04-30T12:59:19;98404.22;;;14.62;45.38
46392;BME280;32098;49.448;7.904;2023-04-30T13:01:46;98427.97;;;14.70;44.34
46392;BME280;32098;49.448;7.904;2023-04-30T13:04:18;98433.72;;;14.57;44.34
46392;BME280;32098;49.448;7.904;2023-04-30T13:06:45;98422.00;;;14.63;44.47
46392;BME280;32098;49.448;7.904;2023-04-30T13:09:12;98419.38;;;14.51;45.77
46392;BME280;32098;49.448;7.904;2023-04-30T13:11:40;98415.47;;;14.59;44.10
46392;BME280;32098;49.448;7.904;2023-04-30T13:14:07;98402.53;;;14.77;44.57
46392;BME280;32098;49.448;7.904;2023-04-30T13:16:42;98420.53;;;14.77;44.55
46392;BME280;32098;49.448;7.904;2023-04-30T13:19:21;98402.63;;;14.61;45.20
46392;BME280;32098;49.448;7.904;2023-04-30T13:22:21;98420.69;;;14.49;44.02
46392;BME280;32098;49.448;7.904;2023-04-30T13:33:26;98397.06;;;14.94;43.24
46392;BME280;32098;49.448;7.904;2023-04-30T13:35:54;98388.41;;;14.65;42.68
46392;BME280;32098;49.448;7.904;2023-04-30T13:38:22;98320.84;;;14.57;44.13
46392;BME280;32098;49.448;7.904;2023-04-30T13:40:49;98401.03;;;15.13;43.58
46392;BME280;32098;49.448;7.904;2023-04-30T13:43:16;98361.53;;;14.92;42.84
46392;BME280;32098;49.448;7.904;2023-04-30T13:45:43;98396.09;;;15.05;42.60
46392;BME280;32098;49.448;7.904;2023-04-30T13:48:09;98353.03;;;14.73;42.85
46392;BME280;32098;49.448;7.904;2023-04-30T13:50:42;98391.78;;;15.04;43.90
46392;BME280;32098;49.448;7.904;2023-04-30T13:53:08;98361.38;;;15.30;42.96
46392;BME280;32098;49.448;7.904;2023-04-30T13:55:58;98383.94;;;15.29;43.31
46392;BME280;32098;49.448;7.904;2023-04-30T13:58:26;98347.47;;;15.12;43.42